Fame, Mississippi
Current Conditions -  °F | °C
As of 9:55 AM on Thursday 27 Nov 2014 (Local Time) from KGNF Reporting Station
Overcast Overcast  
Wind Chill:   Ceiling: 2900
Heat Index:   Visibility: 10mi
Dew Point: -1°   Wind: 5mph
Humidity: 70%   Direction: 360°N
Pressure: 30.51"   Gusts: NA
Location:  33.6106°N, 89.3673°W
Report Text: KGNF 271555Z AUTO 36004KT 10SM OVC029 04/M01 A3051 RMK AO2
Loading
Personal Weather Stations






























Interactive Weather Map New forecast layout! Learn more

10-Day Weather Forecast

Advertisements
Track Severe Weather on mobile